sensor_id;sensor_type;location;lat;lon;timestamp;P1;durP1;ratioP1;P2;durP2;ratioP2
35592;SDS011;64447;52.140;5.602;2024-01-11T11:13:06;44.10;;;18.75;;
35592;SDS011;64447;52.140;5.602;2024-01-11T11:15:34;51.03;;;20.92;;
35592;SDS011;64447;52.140;5.602;2024-01-11T11:18:02;49.60;;;21.73;;
35592;SDS011;64447;52.140;5.602;2024-01-11T11:20:31;48.38;;;21.48;;
35592;SDS011;64447;52.140;5.602;2024-01-11T11:23:03;49.83;;;20.63;;
35592;SDS011;64447;52.140;5.602;2024-01-11T11:25:30;46.20;;;20.38;;
35592;SDS011;64447;52.140;5.602;2024-01-11T11:27:56;45.10;;;20.33;;
35592;SDS011;64447;52.140;5.602;2024-01-11T11:30:22;47.30;;;19.70;;
35592;SDS011;64447;52.140;5.602;2024-01-11T11:32:48;46.88;;;19.92;;
35592;SDS011;64447;52.140;5.602;2024-01-11T11:35:14;43.85;;;19.35;;
35592;SDS011;64447;52.140;5.602;2024-01-11T11:37:39;42.80;;;20.55;;
35592;SDS011;64447;52.140;5.602;2024-01-11T11:40:05;44.08;;;18.98;;
35592;SDS011;64447;52.140;5.602;2024-01-11T11:42:34;42.53;;;19.30;;
35592;SDS011;64447;52.140;5.602;2024-01-11T11:45:00;45.65;;;19.05;;
35592;SDS011;64447;52.140;5.602;2024-01-11T11:47:32;43.42;;;20.02;;
35592;SDS011;64447;52.140;5.602;2024-01-11T11:50:09;36.00;;;18.70;;
35592;SDS011;64447;52.140;5.602;2024-01-11T11:52:37;45.80;;;19.30;;
35592;SDS011;64447;52.140;5.602;2024-01-11T11:55:05;39.28;;;20.63;;
35592;SDS011;64447;52.140;5.602;2024-01-11T11:57:33;46.88;;;21.50;;
35592;SDS011;64447;52.140;5.602;2024-01-11T12:00:00;40.67;;;20.58;;
35592;SDS011;64447;52.140;5.602;2024-01-11T12:02:30;41.53;;;21.15;;
35592;SDS011;64447;52.140;5.602;2024-01-11T12:04:56;44.40;;;18.95;;
35592;SDS011;64447;52.140;5.602;2024-01-11T12:07:21;41.28;;;19.42;;
35592;SDS011;64447;52.140;5.602;2024-01-11T12:09:48;41.70;;;21.80;;
35592;SDS011;64447;52.140;5.602;2024-01-11T12:12:15;42.92;;;19.48;;
35592;SDS011;64447;52.140;5.602;2024-01-11T12:14:42;38.33;;;19.35;;
35592;SDS011;64447;52.140;5.602;2024-01-11T12:17:08;39.70;;;18.67;;
35592;SDS011;64447;52.140;5.602;2024-01-11T12:19:34;39.58;;;18.65;;
35592;SDS011;64447;52.140;5.602;2024-01-11T12:21:59;38.10;;;19.15;;
35592;SDS011;64447;52.140;5.602;2024-01-11T12:24:25;35.28;;;17.63;;
35592;SDS011;64447;52.140;5.602;2024-01-11T12:26:51;37.08;;;18.02;;
35592;SDS011;64447;52.140;5.602;2024-01-11T12:29:19;36.95;;;17.17;;
35592;SDS011;64447;52.140;5.602;2024-01-11T12:31:45;37.40;;;17.73;;
35592;SDS011;64447;52.140;5.602;2024-01-11T12:34:13;34.05;;;17.70;;
35592;SDS011;64447;52.140;5.602;2024-01-11T12:36:40;36.42;;;18.35;;
35592;SDS011;64447;52.140;5.602;2024-01-11T12:39:06;37.35;;;18.65;;
35592;SDS011;64447;52.140;5.602;2024-01-11T12:41:33;36.35;;;18.55;;
35592;SDS011;64447;52.140;5.602;2024-01-11T12:44:00;34.90;;;18.08;;
35592;SDS011;64447;52.140;5.602;2024-01-11T12:46:26;36.30;;;18.08;;
35592;SDS011;64447;52.140;5.602;2024-01-11T12:48:52;34.65;;;18.50;;
35592;SDS011;64447;52.140;5.602;2024-01-11T12:51:18;35.75;;;19.63;;
35592;SDS011;64447;52.140;5.602;2024-01-11T12:53:47;36.50;;;20.30;;
35592;SDS011;64447;52.140;5.602;2024-01-11T12:56:16;49.28;;;23.13;;
35592;SDS011;64447;52.140;5.602;2024-01-11T12:58:43;42.40;;;22.08;;
35592;SDS011;64447;52.140;5.602;2024-01-11T13:01:08;44.10;;;22.38;;
35592;SDS011;64447;52.140;5.602;2024-01-11T13:03:35;49.25;;;25.20;;
35592;SDS011;64447;52.140;5.602;2024-01-11T13:06:02;49.25;;;27.88;;
35592;SDS011;64447;52.140;5.602;2024-01-11T13:08:30;48.10;;;24.38;;
35592;SDS011;64447;52.140;5.602;2024-01-11T13:10:56;41.40;;;21.63;;
35592;SDS011;64447;52.140;5.602;2024-01-11T13:13:22;41.17;;;20.42;;
35592;SDS011;64447;52.140;5.602;2024-01-11T13:15:48;36.10;;;19.17;;
35592;SDS011;64447;52.140;5.602;2024-01-11T13:18:19;38.28;;;20.13;;
35592;SDS011;64447;52.140;5.602;2024-01-11T13:20:45;44.13;;;19.83;;
35592;SDS011;64447;52.140;5.602;2024-01-11T13:23:12;38.80;;;19.35;;
35592;SDS011;64447;52.140;5.602;2024-01-11T13:25:46;35.15;;;18.05;;
35592;SDS011;64447;52.140;5.602;2024-01-11T13:28:13;35.45;;;19.05;;
35592;SDS011;64447;52.140;5.602;2024-01-11T13:30:39;35.78;;;17.52;;
35592;SDS011;64447;52.140;5.602;2024-01-11T13:33:06;35.38;;;20.08;;
35592;SDS011;64447;52.140;5.602;2024-01-11T13:35:35;40.60;;;19.35;;
35592;SDS011;64447;52.140;5.602;2024-01-11T13:38:04;35.17;;;17.73;;
35592;SDS011;64447;52.140;5.602;2024-01-11T13:40:31;39.88;;;17.70;;
35592;SDS011;64447;52.140;5.602;2024-01-11T13:42:57;32.80;;;18.52;;
35592;SDS011;64447;52.140;5.602;2024-01-11T13:45:24;40.15;;;18.20;;
35592;SDS011;64447;52.140;5.602;2024-01-11T13:47:51;36.38;;;18.83;;
35592;SDS011;64447;52.140;5.602;2024-01-11T13:50:19;36.03;;;17.63;;
35592;SDS011;64447;52.140;5.602;2024-01-11T13:52:45;35.38;;;16.45;;
35592;SDS011;64447;52.140;5.602;2024-01-11T13:55:12;32.60;;;17.17;;
35592;SDS011;64447;52.140;5.602;2024-01-11T13:57:38;39.15;;;19.50;;
35592;SDS011;64447;52.140;5.602;2024-01-11T14:00:04;46.13;;;21.85;;
35592;SDS011;64447;52.140;5.602;2024-01-11T14:02:31;38.72;;;20.45;;
35592;SDS011;64447;52.140;5.602;2024-01-11T14:04:57;38.50;;;19.90;;
35592;SDS011;64447;52.140;5.602;2024-01-11T14:07:23;38.83;;;20.00;;
35592;SDS011;64447;52.140;5.602;2024-01-11T14:09:49;35.63;;;17.83;;
35592;SDS011;64447;52.140;5.602;2024-01-11T14:12:15;36.35;;;17.30;;
35592;SDS011;64447;52.140;5.602;2024-01-11T14:14:41;38.13;;;18.58;;
35592;SDS011;64447;52.140;5.602;2024-01-11T14:17:08;38.35;;;19.05;;
35592;SDS011;64447;52.140;5.602;2024-01-11T14:19:34;36.75;;;18.58;;
35592;SDS011;64447;52.140;5.602;2024-01-11T14:22:03;34.83;;;19.35;;
35592;SDS011;64447;52.140;5.602;2024-01-11T14:24:28;41.58;;;18.50;;
35592;SDS011;64447;52.140;5.602;2024-01-11T14:26:54;34.20;;;17.52;;
35592;SDS011;64447;52.140;5.602;2024-01-11T14:29:20;37.92;;;19.33;;
35592;SDS011;64447;52.140;5.602;2024-01-11T14:31:45;37.90;;;19.50;;
35592;SDS011;64447;52.140;5.602;2024-01-11T14:34:11;38.88;;;18.70;;
35592;SDS011;64447;52.140;5.602;2024-01-11T14:36:37;42.60;;;19.92;;
35592;SDS011;64447;52.140;5.602;2024-01-11T14:39:03;39.00;;;19.05;;
35592;SDS011;64447;52.140;5.602;2024-01-11T14:41:29;38.17;;;18.88;;
35592;SDS011;64447;52.140;5.602;2024-01-11T14:43:56;35.65;;;16.83;;
35592;SDS011;64447;52.140;5.602;2024-01-11T14:46:22;35.25;;;19.40;;
35592;SDS011;64447;52.140;5.602;2024-01-11T14:48:48;38.17;;;19.88;;
35592;SDS011;64447;52.140;5.602;2024-01-11T14:51:14;36.08;;;17.13;;
35592;SDS011;64447;52.140;5.602;2024-01-11T14:53:40;40.50;;;20.17;;
35592;SDS011;64447;52.140;5.602;2024-01-11T14:56:06;37.75;;;19.70;;
35592;SDS011;64447;52.140;5.602;2024-01-11T14:58:33;42.13;;;20.33;;
35592;SDS011;64447;52.140;5.602;2024-01-11T15:00:58;40.63;;;18.88;;
35592;SDS011;64447;52.140;5.602;2024-01-11T15:03:24;41.70;;;19.67;;
35592;SDS011;64447;52.140;5.602;2024-01-11T15:05:51;41.00;;;21.10;;
35592;SDS011;64447;52.140;5.602;2024-01-11T15:08:17;38.63;;;20.50;;
35592;SDS011;64447;52.140;5.602;2024-01-11T15:10:43;36.85;;;19.75;;
35592;SDS011;64447;52.140;5.602;2024-01-11T15:13:13;46.55;;;20.95;;
35592;SDS011;64447;52.140;5.602;2024-01-11T15:15:39;40.63;;;19.73;;
35592;SDS011;64447;52.140;5.602;2024-01-11T15:18:04;45.55;;;21.20;;
35592;SDS011;64447;52.140;5.602;2024-01-11T15:20:30;40.53;;;21.15;;
35592;SDS011;64447;52.140;5.602;2024-01-11T15:22:56;45.28;;;20.48;;
35592;SDS011;64447;52.140;5.602;2024-01-11T15:25:22;38.75;;;17.92;;
35592;SDS011;64447;52.140;5.602;2024-01-11T15:27:49;43.45;;;19.27;;
35592;SDS011;64447;52.140;5.602;2024-01-11T15:30:14;35.55;;;18.75;;
35592;SDS011;64447;52.140;5.602;2024-01-11T15:32:40;39.47;;;19.10;;
35592;SDS011;64447;52.140;5.602;2024-01-11T15:35:07;41.22;;;19.67;;
35592;SDS011;64447;52.140;5.602;2024-01-11T15:37:33;39.45;;;19.95;;
35592;SDS011;64447;52.140;5.602;2024-01-11T15:39:59;43.38;;;19.58;;
35592;SDS011;64447;52.140;5.602;2024-01-11T15:42:29;39.83;;;18.98;;
35592;SDS011;64447;52.140;5.602;2024-01-11T15:44:56;41.70;;;20.75;;
35592;SDS011;64447;52.140;5.602;2024-01-11T15:47:22;38.88;;;19.50;;
35592;SDS011;64447;52.140;5.602;2024-01-11T15:49:48;37.88;;;20.50;;
35592;SDS011;64447;52.140;5.602;2024-01-11T15:52:14;40.63;;;19.65;;
35592;SDS011;64447;52.140;5.602;2024-01-11T15:54:40;39.15;;;20.60;;
35592;SDS011;64447;52.140;5.602;2024-01-11T15:57:06;40.63;;;21.05;;
35592;SDS011;64447;52.140;5.602;2024-01-11T15:59:32;46.50;;;21.50;;
35592;SDS011;64447;52.140;5.602;2024-01-11T16:01:57;43.17;;;22.27;;
35592;SDS011;64447;52.140;5.602;2024-01-11T16:04:23;43.13;;;25.33;;
35592;SDS011;64447;52.140;5.602;2024-01-11T16:06:50;46.67;;;26.00;;
35592;SDS011;64447;52.140;5.602;2024-01-11T16:09:17;44.55;;;25.17;;
35592;SDS011;64447;52.140;5.602;2024-01-11T16:11:45;54.78;;;31.50;;
35592;SDS011;64447;52.140;5.602;2024-01-11T16:14:11;56.22;;;34.47;;
35592;SDS011;64447;52.140;5.602;2024-01-11T16:16:37;52.15;;;30.23;;
35592;SDS011;64447;52.140;5.602;2024-01-11T16:19:03;42.53;;;24.95;;
35592;SDS011;64447;52.140;5.602;2024-01-11T16:21:28;42.35;;;22.73;;
35592;SDS011;64447;52.140;5.602;2024-01-11T16:23:56;47.97;;;23.38;;
35592;SDS011;64447;52.140;5.602;2024-01-11T16:26:25;46.22;;;24.83;;
35592;SDS011;64447;52.140;5.602;2024-01-11T16:28:53;48.40;;;24.33;;
35592;SDS011;64447;52.140;5.602;2024-01-11T16:31:19;48.63;;;25.50;;
35592;SDS011;64447;52.140;5.602;2024-01-11T16:33:45;49.33;;;23.80;;
35592;SDS011;64447;52.140;5.602;2024-01-11T16:36:14;47.35;;;24.75;;
35592;SDS011;64447;52.140;5.602;2024-01-11T16:38:41;49.22;;;26.13;;
35592;SDS011;64447;52.140;5.602;2024-01-11T16:41:07;47.03;;;23.95;;
35592;SDS011;64447;52.140;5.602;2024-01-11T16:43:33;42.60;;;24.08;;
35592;SDS011;64447;52.140;5.602;2024-01-11T16:46:00;47.55;;;25.80;;
35592;SDS011;64447;52.140;5.602;2024-01-11T16:48:26;46.92;;;23.67;;
35592;SDS011;64447;52.140;5.602;2024-01-11T16:50:52;51.35;;;24.20;;
35592;SDS011;64447;52.140;5.602;2024-01-11T16:53:18;53.80;;;28.42;;
35592;SDS011;64447;52.140;5.602;2024-01-11T16:55:45;46.35;;;27.17;;
35592;SDS011;64447;52.140;5.602;2024-01-11T16:58:11;47.40;;;26.15;;
35592;SDS011;64447;52.140;5.602;2024-01-11T17:00:40;45.60;;;26.02;;
35592;SDS011;64447;52.140;5.602;2024-01-11T17:03:06;50.50;;;24.88;;
35592;SDS011;64447;52.140;5.602;2024-01-11T17:05:33;45.55;;;24.58;;
35592;SDS011;64447;52.140;5.602;2024-01-11T17:08:00;43.80;;;24.50;;
35592;SDS011;64447;52.140;5.602;2024-01-11T17:10:30;47.65;;;25.27;;
35592;SDS011;64447;52.140;5.602;2024-01-11T17:12:56;41.58;;;24.67;;
35592;SDS011;64447;52.140;5.602;2024-01-11T17:15:22;44.63;;;26.00;;
35592;SDS011;64447;52.140;5.602;2024-01-11T17:17:48;45.95;;;28.15;;
35592;SDS011;64447;52.140;5.602;2024-01-11T17:20:13;40.72;;;24.33;;
35592;SDS011;64447;52.140;5.602;2024-01-11T17:22:40;45.20;;;23.35;;
35592;SDS011;64447;52.140;5.602;2024-01-11T17:25:07;46.17;;;25.25;;
35592;SDS011;64447;52.140;5.602;2024-01-11T17:27:33;51.88;;;26.38;;
35592;SDS011;64447;52.140;5.602;2024-01-11T17:29:59;44.45;;;27.20;;
35592;SDS011;64447;52.140;5.602;2024-01-11T17:32:25;43.95;;;23.27;;
35592;SDS011;64447;52.140;5.602;2024-01-11T17:34:50;46.08;;;24.25;;
35592;SDS011;64447;52.140;5.602;2024-01-11T17:37:23;45.00;;;24.95;;
35592;SDS011;64447;52.140;5.602;2024-01-11T17:39:50;45.42;;;23.63;;
35592;SDS011;64447;52.140;5.602;2024-01-11T17:42:16;41.85;;;23.83;;
35592;SDS011;64447;52.140;5.602;2024-01-11T17:44:42;52.08;;;28.65;;
35592;SDS011;64447;52.140;5.602;2024-01-11T17:47:11;56.47;;;28.55;;
35592;SDS011;64447;52.140;5.602;2024-01-11T17:49:37;45.17;;;24.90;;
35592;SDS011;64447;52.140;5.602;2024-01-11T17:52:03;49.22;;;24.45;;
35592;SDS011;64447;52.140;5.602;2024-01-11T17:54:29;46.47;;;25.15;;
35592;SDS011;64447;52.140;5.602;2024-01-11T17:56:55;47.75;;;25.65;;
35592;SDS011;64447;52.140;5.602;2024-01-11T17:59:21;47.05;;;24.98;;
35592;SDS011;64447;52.140;5.602;2024-01-11T18:01:46;46.83;;;24.42;;
35592;SDS011;64447;52.140;5.602;2024-01-11T18:04:12;40.88;;;25.02;;
35592;SDS011;64447;52.140;5.602;2024-01-11T18:06:38;46.55;;;25.13;;
35592;SDS011;64447;52.140;5.602;2024-01-11T18:09:04;45.75;;;26.27;;
35592;SDS011;64447;52.140;5.602;2024-01-11T18:11:30;43.67;;;26.38;;
35592;SDS011;64447;52.140;5.602;2024-01-11T18:13:57;45.00;;;27.48;;
35592;SDS011;64447;52.140;5.602;2024-01-11T18:16:23;48.42;;;26.80;;
35592;SDS011;64447;52.140;5.602;2024-01-11T18:18:50;42.95;;;23.38;;
35592;SDS011;64447;52.140;5.602;2024-01-11T18:21:16;40.70;;;22.42;;
35592;SDS011;64447;52.140;5.602;2024-01-11T18:23:42;40.05;;;22.73;;
35592;SDS011;64447;52.140;5.602;2024-01-11T18:26:08;45.13;;;22.67;;
35592;SDS011;64447;52.140;5.602;2024-01-11T18:28:33;44.20;;;26.00;;
35592;SDS011;64447;52.140;5.602;2024-01-11T18:30:59;45.22;;;24.42;;
35592;SDS011;64447;52.140;5.602;2024-01-11T18:33:25;40.60;;;23.88;;
35592;SDS011;64447;52.140;5.602;2024-01-11T18:35:50;43.00;;;22.98;;
35592;SDS011;64447;52.140;5.602;2024-01-11T18:38:16;46.38;;;25.08;;
35592;SDS011;64447;52.140;5.602;2024-01-11T18:40:43;48.08;;;26.45;;
35592;SDS011;64447;52.140;5.602;2024-01-11T18:43:09;45.42;;;25.80;;
35592;SDS011;64447;52.140;5.602;2024-01-11T18:45:35;51.70;;;26.88;;
35592;SDS011;64447;52.140;5.602;2024-01-11T18:48:00;45.03;;;25.27;;
35592;SDS011;64447;52.140;5.602;2024-01-11T18:50:30;46.42;;;25.42;;
35592;SDS011;64447;52.140;5.602;2024-01-11T18:52:56;49.97;;;27.45;;
35592;SDS011;64447;52.140;5.602;2024-01-11T18:55:22;45.03;;;25.52;;
35592;SDS011;64447;52.140;5.602;2024-01-11T18:57:47;46.38;;;26.00;;
35592;SDS011;64447;52.140;5.602;2024-01-11T19:00:13;45.72;;;25.35;;
35592;SDS011;64447;52.140;5.602;2024-01-11T19:02:39;45.13;;;26.73;;
35592;SDS011;64447;52.140;5.602;2024-01-11T19:05:05;51.60;;;27.30;;
35592;SDS011;64447;52.140;5.602;2024-01-11T19:07:30;44.47;;;26.08;;
35592;SDS011;64447;52.140;5.602;2024-01-11T19:09:56;51.90;;;29.85;;
35592;SDS011;64447;52.140;5.602;2024-01-11T19:12:22;46.92;;;28.27;;
35592;SDS011;64447;52.140;5.602;2024-01-11T19:14:48;46.97;;;27.20;;
35592;SDS011;64447;52.140;5.602;2024-01-11T19:17:13;61.88;;;37.17;;
35592;SDS011;64447;52.140;5.602;2024-01-11T19:19:40;56.53;;;34.33;;
35592;SDS011;64447;52.140;5.602;2024-01-11T19:22:06;50.85;;;30.88;;
35592;SDS011;64447;52.140;5.602;2024-01-11T19:24:33;54.40;;;33.90;;
35592;SDS011;64447;52.140;5.602;2024-01-11T19:26:59;45.33;;;26.77;;
35592;SDS011;64447;52.140;5.602;2024-01-11T19:29:25;45.72;;;26.85;;
35592;SDS011;64447;52.140;5.602;2024-01-11T19:31:52;48.20;;;27.50;;
35592;SDS011;64447;52.140;5.602;2024-01-11T19:34:17;44.33;;;26.40;;
35592;SDS011;64447;52.140;5.602;2024-01-11T19:36:43;48.33;;;28.20;;
35592;SDS011;64447;52.140;5.602;2024-01-11T19:39:10;90.03;;;51.03;;
35592;SDS011;64447;52.140;5.602;2024-01-11T19:41:36;65.10;;;39.85;;
35592;SDS011;64447;52.140;5.602;2024-01-11T19:44:03;67.45;;;39.17;;
35592;SDS011;64447;52.140;5.602;2024-01-11T19:46:29;54.38;;;31.00;;
35592;SDS011;64447;52.140;5.602;2024-01-11T19:48:58;51.67;;;29.33;;
35592;SDS011;64447;52.140;5.602;2024-01-11T19:51:24;48.92;;;28.63;;
35592;SDS011;64447;52.140;5.602;2024-01-11T19:53:49;49.92;;;28.05;;
35592;SDS011;64447;52.140;5.602;2024-01-11T19:56:20;64.82;;;40.70;;
35592;SDS011;64447;52.140;5.602;2024-01-11T19:58:47;61.13;;;35.58;;
35592;SDS011;64447;52.140;5.602;2024-01-11T20:01:16;59.13;;;34.75;;
35592;SDS011;64447;52.140;5.602;2024-01-11T20:03:42;56.72;;;31.05;;
35592;SDS011;64447;52.140;5.602;2024-01-11T20:06:08;51.05;;;30.15;;
35592;SDS011;64447;52.140;5.602;2024-01-11T20:08:34;52.78;;;29.88;;
35592;SDS011;64447;52.140;5.602;2024-01-11T20:11:01;52.22;;;29.98;;
35592;SDS011;64447;52.140;5.602;2024-01-11T20:13:27;48.63;;;28.98;;
35592;SDS011;64447;52.140;5.602;2024-01-11T20:15:52;52.72;;;30.55;;
35592;SDS011;64447;52.140;5.602;2024-01-11T20:18:18;61.85;;;36.15;;
35592;SDS011;64447;52.140;5.602;2024-01-11T20:20:44;54.50;;;31.88;;
35592;SDS011;64447;52.140;5.602;2024-01-11T20:23:12;51.20;;;31.50;;
35592;SDS011;64447;52.140;5.602;2024-01-11T20:25:38;51.05;;;30.60;;
35592;SDS011;64447;52.140;5.602;2024-01-11T20:28:05;55.67;;;31.77;;
35592;SDS011;64447;52.140;5.602;2024-01-11T20:30:31;55.33;;;31.75;;
35592;SDS011;64447;52.140;5.602;2024-01-11T20:32:57;56.00;;;31.38;;
35592;SDS011;64447;52.140;5.602;2024-01-11T20:35:23;55.17;;;33.17;;
35592;SDS011;64447;52.140;5.602;2024-01-11T20:37:49;56.22;;;33.72;;
35592;SDS011;64447;52.140;5.602;2024-01-11T20:40:15;54.85;;;31.48;;
35592;SDS011;64447;52.140;5.602;2024-01-11T20:42:42;55.03;;;33.35;;
35592;SDS011;64447;52.140;5.602;2024-01-11T20:45:08;50.28;;;31.55;;
35592;SDS011;64447;52.140;5.602;2024-01-11T20:47:34;53.33;;;32.90;;
35592;SDS011;64447;52.140;5.602;2024-01-11T20:49:59;50.10;;;29.35;;
35592;SDS011;64447;52.140;5.602;2024-01-11T20:52:26;60.92;;;37.67;;
35592;SDS011;64447;52.140;5.602;2024-01-11T20:54:53;53.63;;;32.17;;
35592;SDS011;64447;52.140;5.602;2024-01-11T20:57:19;60.05;;;33.67;;
35592;SDS011;64447;52.140;5.602;2024-01-11T20:59:45;52.28;;;32.47;;
35592;SDS011;64447;52.140;5.602;2024-01-11T21:02:10;47.35;;;31.52;;
35592;SDS011;64447;52.140;5.602;2024-01-11T21:04:36;57.45;;;32.30;;
35592;SDS011;64447;52.140;5.602;2024-01-11T21:07:02;48.80;;;29.13;;
35592;SDS011;64447;52.140;5.602;2024-01-11T21:09:28;46.00;;;28.60;;
35592;SDS011;64447;52.140;5.602;2024-01-11T21:11:54;43.47;;;26.38;;
35592;SDS011;64447;52.140;5.602;2024-01-11T21:14:24;44.28;;;26.45;;
35592;SDS011;64447;52.140;5.602;2024-01-11T21:16:50;50.17;;;27.77;;
35592;SDS011;64447;52.140;5.602;2024-01-11T21:19:16;43.10;;;26.95;;
35592;SDS011;64447;52.140;5.602;2024-01-11T21:21:42;56.58;;;31.80;;
35592;SDS011;64447;52.140;5.602;2024-01-11T21:24:10;54.75;;;32.35;;
35592;SDS011;64447;52.140;5.602;2024-01-11T21:26:36;72.50;;;40.50;;
35592;SDS011;64447;52.140;5.602;2024-01-11T21:29:01;93.60;;;53.25;;
35592;SDS011;64447;52.140;5.602;2024-01-11T21:31:28;75.38;;;43.90;;
35592;SDS011;64447;52.140;5.602;2024-01-11T21:33:58;56.95;;;34.60;;
35592;SDS011;64447;52.140;5.602;2024-01-11T21:36:25;50.67;;;30.95;;
35592;SDS011;64447;52.140;5.602;2024-01-11T21:38:52;63.33;;;37.85;;
35592;SDS011;64447;52.140;5.602;2024-01-11T21:41:22;61.85;;;36.75;;
35592;SDS011;64447;52.140;5.602;2024-01-11T21:43:52;54.42;;;29.50;;
35592;SDS011;64447;52.140;5.602;2024-01-11T21:46:20;50.53;;;29.27;;
35592;SDS011;64447;52.140;5.602;2024-01-11T21:48:46;47.58;;;27.77;;
35592;SDS011;64447;52.140;5.602;2024-01-11T21:51:12;51.25;;;29.45;;
35592;SDS011;64447;52.140;5.602;2024-01-11T21:53:38;51.28;;;29.40;;
35592;SDS011;64447;52.140;5.602;2024-01-11T21:56:04;45.53;;;27.05;;
35592;SDS011;64447;52.140;5.602;2024-01-11T21:58:30;44.67;;;26.55;;
35592;SDS011;64447;52.140;5.602;2024-01-11T22:00:55;51.13;;;27.27;;
35592;SDS011;64447;52.140;5.602;2024-01-11T22:03:22;52.97;;;29.95;;
35592;SDS011;64447;52.140;5.602;2024-01-11T22:05:48;71.07;;;42.15;;
35592;SDS011;64447;52.140;5.602;2024-01-11T22:08:15;89.93;;;54.30;;
35592;SDS011;64447;52.140;5.602;2024-01-11T22:10:42;73.28;;;43.88;;
35592;SDS011;64447;52.140;5.602;2024-01-11T22:13:08;59.70;;;35.67;;
35592;SDS011;64447;52.140;5.602;2024-01-11T22:15:35;57.75;;;33.65;;
35592;SDS011;64447;52.140;5.602;2024-01-11T22:18:01;53.67;;;32.05;;
35592;SDS011;64447;52.140;5.602;2024-01-11T22:20:28;53.83;;;31.75;;
35592;SDS011;64447;52.140;5.602;2024-01-11T22:22:54;51.15;;;30.40;;
35592;SDS011;64447;52.140;5.602;2024-01-11T22:25:19;50.47;;;29.90;;
35592;SDS011;64447;52.140;5.602;2024-01-11T22:27:45;48.03;;;30.00;;
35592;SDS011;64447;52.140;5.602;2024-01-11T22:30:12;52.70;;;31.27;;
35592;SDS011;64447;52.140;5.602;2024-01-11T22:32:39;57.38;;;34.28;;
35592;SDS011;64447;52.140;5.602;2024-01-11T22:35:05;72.65;;;43.85;;
35592;SDS011;64447;52.140;5.602;2024-01-11T22:37:34;75.93;;;45.88;;
35592;SDS011;64447;52.140;5.602;2024-01-11T22:40:00;60.80;;;38.30;;
35592;SDS011;64447;52.140;5.602;2024-01-11T22:42:25;57.42;;;33.30;;
35592;SDS011;64447;52.140;5.602;2024-01-11T22:44:53;54.72;;;31.48;;
35592;SDS011;64447;52.140;5.602;2024-01-11T22:47:19;43.72;;;29.23;;
35592;SDS011;64447;52.140;5.602;2024-01-11T22:49:48;47.25;;;28.48;;
35592;SDS011;64447;52.140;5.602;2024-01-11T22:52:14;46.63;;;28.45;;
35592;SDS011;64447;52.140;5.602;2024-01-11T22:54:40;48.97;;;29.35;;
35592;SDS011;64447;52.140;5.602;2024-01-11T22:57:06;49.85;;;28.63;;
35592;SDS011;64447;52.140;5.602;2024-01-11T22:59:32;46.30;;;27.65;;
35592;SDS011;64447;52.140;5.602;2024-01-11T23:02:00;45.88;;;26.77;;
35592;SDS011;64447;52.140;5.602;2024-01-11T23:04:26;63.83;;;34.97;;
35592;SDS011;64447;52.140;5.602;2024-01-11T23:06:51;64.93;;;36.40;;
35592;SDS011;64447;52.140;5.602;2024-01-11T23:09:17;47.70;;;29.13;;
35592;SDS011;64447;52.140;5.602;2024-01-11T23:11:43;44.97;;;27.13;;
35592;SDS011;64447;52.140;5.602;2024-01-11T23:14:09;45.38;;;28.90;;
35592;SDS011;64447;52.140;5.602;2024-01-11T23:16:35;49.22;;;27.40;;
35592;SDS011;64447;52.140;5.602;2024-01-11T23:19:01;53.00;;;30.05;;
35592;SDS011;64447;52.140;5.602;2024-01-11T23:21:27;56.28;;;30.63;;
35592;SDS011;64447;52.140;5.602;2024-01-11T23:23:53;54.42;;;31.05;;
35592;SDS011;64447;52.140;5.602;2024-01-11T23:26:18;52.63;;;30.30;;
35592;SDS011;64447;52.140;5.602;2024-01-11T23:28:44;47.45;;;29.35;;
35592;SDS011;64447;52.140;5.602;2024-01-11T23:31:10;61.17;;;35.20;;
35592;SDS011;64447;52.140;5.602;2024-01-11T23:33:36;56.33;;;33.58;;
35592;SDS011;64447;52.140;5.602;2024-01-11T23:36:02;53.17;;;30.35;;
35592;SDS011;64447;52.140;5.602;2024-01-11T23:38:28;46.17;;;27.15;;
35592;SDS011;64447;52.140;5.602;2024-01-11T23:40:53;43.63;;;25.00;;
35592;SDS011;64447;52.140;5.602;2024-01-11T23:43:19;44.33;;;25.35;;
35592;SDS011;64447;52.140;5.602;2024-01-11T23:45:45;38.70;;;25.70;;
35592;SDS011;64447;52.140;5.602;2024-01-11T23:48:11;42.28;;;24.60;;
35592;SDS011;64447;52.140;5.602;2024-01-11T23:50:36;42.67;;;25.60;;
35592;SDS011;64447;52.140;5.602;2024-01-11T23:53:02;41.03;;;25.48;;
35592;SDS011;64447;52.140;5.602;2024-01-11T23:55:28;43.70;;;25.10;;
35592;SDS011;64447;52.140;5.602;2024-01-11T23:57:54;39.25;;;23.88;;
